Weather

EOSM Weather Station at 13:15 on 29/06/17

Wind: 21kt N ( 24mph 11° ) Today's High: 32kt at 11:38 QFE: 993mb QNH: 997mb (Steady) Temp: 12°C Dew Point: 11°C Humidity: 96% Rain: Moderate Sunrise: 4:26 Sunset: 21:59

TAFs

  • Edinburgh TAF EGPH 291059Z 2912/3012 02012KT 9999 BKN020 TEMPO 2912/2918 6000 RA BKN012 PROB40 TEMPO 2912/2920 03015G25KT PROB40 TEMPO 2912/2914 4000 RADZ BECMG 2918/2921 BKN012 TEMPO 2918/3012 6000 RA PROB40 TEMPO 2918/3010 4000 RADZ BKN006
  • Leuchars TAF EGQL 291019Z 2912/2921 02014KT 9999 -RA FEW020 BKN030 TEMPO 2912/2921 04018G28KT 7000 RA SCT020 PROB30 TEMPO 2912/2921 4000 RADZ SCT010

Live Airfield Webcams

Looking north towards Berwick Law Looking west Looking east

Met Office Five Day Forecast

OZEE AND BLUE SKY BLUE FLYING SUITS

We are offering a 5% discount on the price of Ozee and Blue Sky Blue flying suits - please send an email to jill@eosm.co.uk giving your choice of suit, size and colour preference.

Pooleys advert

Pooleys are supporting East of Scotland Microlights members and guests by offering 5% discount to anyone making a purchase on their website www.pooleys.com. Simply enter the promotional code "EOSM" when you checkout and you will get a 5% discount on whatever you buy.